createdAt,value
2023-09-17T00:04:08.426Z,99058.66
2023-09-17T00:09:10.472Z,99058.83
2023-09-17T00:14:12.283Z,99057.79
2023-09-17T00:19:14.553Z,99054.27
2023-09-17T00:24:16.385Z,99048.92
2023-09-17T00:29:18.213Z,99049.60
2023-09-17T00:34:20.175Z,99049.05
2023-09-17T00:39:22.033Z,99052.94
2023-09-17T00:44:23.822Z,99051.65
2023-09-17T00:49:26.226Z,99043.78
2023-09-17T00:54:30.373Z,99043.67
2023-09-17T00:59:32.331Z,99036.37
2023-09-17T01:04:34.538Z,99034.86
2023-09-17T01:09:38.538Z,99032.45
2023-09-17T01:14:41.034Z,99033.46
2023-09-17T01:19:44.249Z,99019.92
2023-09-17T01:25:13.574Z,99018.44
2023-09-17T01:30:18.179Z,99024.05
2023-09-17T01:35:20.173Z,99023.89
2023-09-17T01:40:23.552Z,99029.32
2023-09-17T01:45:28.192Z,99029.74
2023-09-17T01:50:31.819Z,99026.38
2023-09-17T01:55:34.004Z,99031.75
2023-09-17T02:00:35.861Z,99031.13
2023-09-17T02:05:37.710Z,99028.37
2023-09-17T02:10:41.942Z,99023.02
2023-09-17T02:15:46.410Z,99022.86
2023-09-17T02:20:48.574Z,99024.09
2023-09-17T02:25:50.696Z,99027.38
2023-09-17T02:30:52.551Z,99026.48
2023-09-17T02:35:55.120Z,99026.13
2023-09-17T02:40:57.160Z,99022.55
2023-09-17T02:45:59.131Z,99023.07
2023-09-17T02:51:03.938Z,99020.81
2023-09-17T02:56:05.795Z,99021.04
2023-09-17T03:01:19.531Z,99021.11
2023-09-17T03:06:21.776Z,99023.40
2023-09-17T03:11:24.744Z,99024.98
2023-09-17T03:16:27.119Z,99027.71
2023-09-17T03:21:29.238Z,99024.96
2023-09-17T03:26:31.775Z,99025.02
2023-09-17T03:31:35.873Z,99028.14
2023-09-17T03:36:38.525Z,99036.06
2023-09-17T03:41:42.113Z,99036.21
2023-09-17T03:46:44.374Z,99036.52
2023-09-17T03:51:46.650Z,99039.12
2023-09-17T03:56:49.732Z,99040.52
2023-09-17T04:01:51.822Z,99038.77
2023-09-17T04:06:53.883Z,99037.26
2023-09-17T04:11:55.666Z,99037.78
2023-09-17T04:16:58.140Z,99036.21
2023-09-17T04:22:00.694Z,99035.61
2023-09-17T04:27:02.906Z,99037.22
2023-09-17T04:32:05.038Z,99035.71
2023-09-17T04:37:08.028Z,99040.36
2023-09-17T04:42:09.892Z,99041.23
2023-09-17T04:47:12.285Z,99043.35
2023-09-17T04:52:14.468Z,99046.49
2023-09-17T04:57:17.241Z,99045.75
2023-09-17T05:02:19.535Z,99047.34
2023-09-17T05:07:22.649Z,99055.02
2023-09-17T05:12:38.266Z,99056.98
2023-09-17T05:17:40.248Z,99064.41
2023-09-17T05:22:42.384Z,99071.54
2023-09-17T05:27:50.254Z,99070.64
2023-09-17T05:32:56.347Z,99072.36
2023-09-17T05:37:58.704Z,99078.33
2023-09-17T05:43:00.717Z,99077.71
2023-09-17T05:48:03.382Z,99079.63
2023-09-17T05:53:05.742Z,99081.65
2023-09-17T05:58:07.721Z,99084.80
2023-09-17T06:03:10.397Z,99087.49
2023-09-17T06:08:12.372Z,99089.08
2023-09-17T06:13:14.139Z,99095.45
2023-09-17T06:18:18.183Z,99094.20
2023-09-17T06:23:20.426Z,99091.71
2023-09-17T06:28:23.156Z,99097.52
2023-09-17T06:33:25.417Z,99099.22
2023-09-17T06:38:27.398Z,99092.92
2023-09-17T06:43:32.193Z,99094.84
2023-09-17T06:48:34.041Z,99088.76
2023-09-17T06:53:35.867Z,99093.52
2023-09-17T06:58:37.752Z,99095.81
2023-09-17T07:03:40.107Z,99098.54
2023-09-17T07:08:45.555Z,99105.99
2023-09-17T07:13:47.428Z,99109.05
2023-09-17T07:18:49.599Z,99110.27
2023-09-17T07:23:52.266Z,99110.73
2023-09-17T07:28:54.633Z,99110.05
2023-09-17T07:33:56.570Z,99117.61
2023-09-17T07:38:58.346Z,99117.14
2023-09-17T07:44:00.233Z,99119.76
2023-09-17T07:49:02.287Z,99116.14
2023-09-17T07:54:04.239Z,99117.54
2023-09-17T07:59:06.157Z,99121.21
2023-09-17T08:04:10.829Z,99117.96
2023-09-17T08:09:12.711Z,99114.52
2023-09-17T08:14:15.804Z,99111.39
2023-09-17T08:19:17.780Z,99113.45
2023-09-17T08:24:21.855Z,99110.23
2023-09-17T08:29:24.142Z,99105.05
2023-09-17T08:34:25.925Z,99102.20
2023-09-17T08:39:27.792Z,99108.56
2023-09-17T08:44:59.751Z,99104.95
2023-09-17T08:50:01.829Z,99101.23
2023-09-17T08:55:06.240Z,99103.75
2023-09-17T09:00:11.381Z,99097.16
2023-09-17T09:05:16.298Z,99098.20
2023-09-17T09:10:19.664Z,99102.80
2023-09-17T09:15:22.419Z,99103.71
2023-09-17T09:20:24.237Z,99101.13
2023-09-17T09:25:28.211Z,99103.34
2023-09-17T09:30:30.925Z,99102.98
2023-09-17T09:35:33.011Z,99100.05
2023-09-17T09:40:38.404Z,99095.96
2023-09-17T09:45:42.318Z,99095.66
2023-09-17T09:50:44.875Z,99099.89
2023-09-17T09:55:48.184Z,99102.31
2023-09-17T10:00:50.303Z,99099.27
2023-09-17T10:05:52.192Z,99096.88
2023-09-17T10:10:55.403Z,99094.70
2023-09-17T10:15:57.612Z,99097.05
2023-09-17T10:21:01.013Z,99089.08
2023-09-17T10:26:04.747Z,99083.86
2023-09-17T10:31:09.035Z,99083.13
2023-09-17T10:36:12.576Z,99082.45
2023-09-17T10:41:14.651Z,99087.13
2023-09-17T10:46:17.089Z,99085.39
2023-09-17T10:51:20.279Z,99083.79
2023-09-17T10:56:23.583Z,99084.91
2023-09-17T11:01:30.370Z,99079.94
2023-09-17T11:06:36.035Z,99079.60
2023-09-17T11:11:38.300Z,99081.95
2023-09-17T11:16:40.176Z,99077.58
2023-09-17T11:21:43.958Z,99078.30
2023-09-17T11:26:47.220Z,99080.50
2023-09-17T11:31:55.314Z,99076.73
2023-09-17T11:36:59.221Z,99070.38
2023-09-17T11:42:14.787Z,99073.02
2023-09-17T11:47:18.637Z,99072.24
2023-09-17T11:52:20.729Z,99061.31
2023-09-17T11:57:26.954Z,99052.00
2023-09-17T12:02:29.448Z,99057.52
2023-09-17T12:07:42.276Z,99051.66
2023-09-17T12:12:51.565Z,99052.23
2023-09-17T12:17:54.131Z,99052.53
2023-09-17T12:23:58.629Z,99049.70
2023-09-17T12:29:00.575Z,99042.38
2023-09-17T12:34:02.658Z,99037.51
2023-09-17T12:39:05.711Z,99036.27
2023-09-17T12:44:07.634Z,99037.21
2023-09-17T12:49:10.175Z,99039.99
2023-09-17T12:54:12.681Z,99042.79
2023-09-17T12:59:14.547Z,99039.28
2023-09-17T13:04:16.483Z,99036.95
2023-09-17T13:09:18.632Z,99034.86
2023-09-17T13:14:21.540Z,99039.18
2023-09-17T13:19:23.684Z,99032.12
2023-09-17T13:24:26.937Z,99025.55
2023-09-17T13:29:41.466Z,99025.14
2023-09-17T13:34:45.682Z,99022.05
2023-09-17T13:39:50.991Z,99020.91
2023-09-17T13:44:56.379Z,99018.22
2023-09-17T13:49:59.913Z,99024.59
2023-09-17T13:55:02.332Z,99024.21
2023-09-17T14:00:04.619Z,99024.68
2023-09-17T14:05:14.425Z,99026.44
2023-09-17T14:10:18.048Z,99020.96
2023-09-17T14:15:22.460Z,99019.91
2023-09-17T14:20:24.259Z,99013.27
2023-09-17T14:25:26.302Z,99014.77
2023-09-17T14:30:29.268Z,99017.63
2023-09-17T14:35:31.201Z,99015.94
2023-09-17T14:40:33.221Z,99013.97
2023-09-17T14:45:35.045Z,99009.92
2023-09-17T14:50:36.922Z,99008.03
2023-09-17T14:55:39.080Z,99008.05
2023-09-17T15:00:40.871Z,99005.15
2023-09-17T15:05:42.708Z,99003.91
2023-09-17T15:10:44.843Z,99002.27
2023-09-17T15:15:50.331Z,98996.77
2023-09-17T15:20:52.126Z,98997.31
2023-09-17T15:25:53.917Z,98998.09
2023-09-17T15:30:55.854Z,98998.95
2023-09-17T15:35:58.978Z,98998.86
2023-09-17T15:41:04.679Z,98995.88
2023-09-17T15:46:06.647Z,98996.13
2023-09-17T15:51:08.492Z,99000.21
2023-09-17T15:56:10.377Z,98995.33
2023-09-17T16:01:12.381Z,98994.64
2023-09-17T16:06:17.530Z,98995.69
2023-09-17T16:11:19.583Z,98990.95
2023-09-17T16:16:21.544Z,99001.23
2023-09-17T16:21:23.380Z,99005.86
2023-09-17T16:26:25.171Z,99009.72
2023-09-17T16:31:27.977Z,99004.88
2023-09-17T16:36:31.507Z,99006.93
2023-09-17T16:41:33.459Z,99007.17
2023-09-17T16:46:35.320Z,99009.44
2023-09-17T16:51:45.110Z,99013.67
2023-09-17T16:56:47.988Z,99014.29
2023-09-17T17:01:49.943Z,99010.91
2023-09-17T17:06:52.054Z,99006.45
2023-09-17T17:11:54.752Z,99007.95
2023-09-17T17:16:58.525Z,99008.56
2023-09-17T17:22:00.482Z,99017.45
2023-09-17T17:27:02.498Z,99020.22
2023-09-17T17:32:04.795Z,99024.35
2023-09-17T17:37:06.784Z,99025.61
2023-09-17T17:42:08.539Z,99027.06
2023-09-17T17:47:10.320Z,99025.91
2023-09-17T17:52:12.134Z,99026.05
2023-09-17T17:57:14.295Z,99032.73
2023-09-17T18:02:16.380Z,99030.53
2023-09-17T18:07:18.440Z,99033.77
2023-09-17T18:12:20.489Z,99008.13
2023-09-17T18:17:22.511Z,99030.96
2023-09-17T18:22:24.604Z,99037.98
2023-09-17T18:27:26.993Z,99040.64
2023-09-17T18:32:28.762Z,99045.59
2023-09-17T18:37:31.539Z,99042.88
2023-09-17T18:42:34.566Z,99047.52
2023-09-17T18:47:36.457Z,99058.73
2023-09-17T18:52:38.375Z,99061.45
2023-09-17T18:57:41.054Z,99061.90
2023-09-17T19:02:44.672Z,99068.77
2023-09-17T19:07:47.356Z,99070.73
2023-09-17T19:12:57.499Z,99071.88
2023-09-17T19:17:59.406Z,99071.40
2023-09-17T19:23:01.375Z,99071.28
2023-09-17T19:28:05.692Z,99071.98
2023-09-17T19:33:07.840Z,99065.29
2023-09-17T19:38:09.927Z,99058.60
2023-09-17T19:43:12.072Z,99053.40
2023-09-17T19:49:46.866Z,99045.15
2023-09-17T19:55:28.918Z,99039.71
2023-09-17T20:00:34.595Z,99037.20
2023-09-17T20:05:36.892Z,99032.77
2023-09-17T20:10:39.874Z,99032.66
2023-09-17T20:15:46.427Z,99033.33
2023-09-17T20:20:49.578Z,99031.27
2023-09-17T20:25:51.577Z,99028.64
2023-09-17T20:30:53.777Z,99029.30
2023-09-17T20:35:56.358Z,99026.28
2023-09-17T20:40:59.243Z,99023.23
2023-09-17T20:46:01.101Z,99028.05
2023-09-17T20:51:05.050Z,99018.27
2023-09-17T20:56:07.518Z,99012.77
2023-09-17T21:01:09.520Z,99007.81
2023-09-17T21:06:11.722Z,99005.74
2023-09-17T21:11:17.543Z,99012.80
2023-09-17T21:16:19.936Z,99010.29
2023-09-17T21:21:21.903Z,99013.34
2023-09-17T21:26:24.958Z,99009.96
2023-09-17T21:31:27.562Z,98999.71
2023-09-17T21:36:30.185Z,98997.14
2023-09-17T21:41:32.312Z,98991.59
2023-09-17T21:46:35.483Z,98991.71
2023-09-17T21:51:37.321Z,98988.24
2023-09-17T21:56:39.313Z,98988.66
2023-09-17T22:01:41.531Z,98982.22
2023-09-17T22:06:43.568Z,98983.11
2023-09-17T22:11:45.337Z,98980.10
2023-09-17T22:16:47.233Z,98974.00
2023-09-17T22:21:49.709Z,98979.29
2023-09-17T22:26:52.141Z,98972.57
2023-09-17T22:31:54.128Z,98971.75
2023-09-17T22:36:57.693Z,98969.22
2023-09-17T22:41:59.617Z,98970.89
2023-09-17T22:47:01.523Z,98972.66
2023-09-17T22:52:05.026Z,98974.58
2023-09-17T22:57:07.057Z,98965.80
2023-09-17T23:02:09.358Z,98962.52
2023-09-17T23:07:11.226Z,98961.81
2023-09-17T23:12:15.681Z,98965.31
2023-09-17T23:17:18.693Z,98965.70
2023-09-17T23:22:20.612Z,98965.21
2023-09-17T23:27:25.053Z,98971.92
2023-09-17T23:32:31.430Z,98967.91
2023-09-17T23:37:33.401Z,98962.63
2023-09-17T23:42:35.483Z,98962.98
2023-09-17T23:47:37.376Z,98957.05
2023-09-17T23:52:40.230Z,98962.08
2023-09-17T23:57:42.295Z,98960.77
